निविदा सूची

  From 01.07.2019 onward E-procurement of HCL shall be done through NIC Portal https://eprocure.gov.in/eprocure/app || निविदाएं भी उपलब्ध हैं http://eprocure.gov.in/cppp/

इकाई का नाम जांच संख्या पूछताछ की तारीख छोटा शीर्षक समाप्ति दिनांक / समय निविदा दस्तावेज की लागत (रु।) ईएमडी (रु।) कैंसिल /डिस्चार्ज रिमार्क्स
ICC ICC/00488/2019-20 10-Dec-2019 Enquiry No. : I-12338/LTE/MSB/PSD. Procurement of V BELT 17-Dec-2019 11:00 AM 0.00 0.00 NO
MCP MCP/00232/2019-20 10-Dec-2019 M14499 PROCUREMENT FOR SPARES FOR SALA PUMP MODEL 20-Dec-2019 3:00 PM 0.00 0.00 NO
MCP MCP/00233/2019-20 10-Dec-2019 M14714 PROCUREMENT FOR SLUICE VALVE AND NRV 25-Dec-2019 3:00 PM 0.00 6000.00 NO
MCP MCP/00234/2019-20 10-Dec-2019 M14722 PROCUREMENT FOR GRILL FRAMES 25-Dec-2019 3:00 PM 0.00 3800.00 NO
ICC ICC/00489/2019-20 10-Dec-2019 Enquiry No. : I-12327/LTE/MSB/PSD. Procurement of FLANGED COUPLING AND BOLTS 17-Dec-2019 11:00 AM 0.00 0.00 NO
ICC ICC/00490/2019-20 10-Dec-2019 Enquiry No. : I-12328/LTE/MSB/PSD. Procurement of SS PIPES AND BENDS 17-Dec-2019 11:00 AM 0.00 0.00 NO
ICC ICC/00491/2019-20 10-Dec-2019 Enquiry No. : I-12329/LTE/MSB/PSD. Procurement of M S PIPE 17-Dec-2019 11:00 AM 0.00 0.00 NO
ICC ICC/00468/2019-20 09-Dec-2019 Enquiry No. : I-12242/MSB/LTE/PSD, PROCUREMENT OF TROUGHING IDLERS WITH FRAME AND RETURN IDLERS 17-Dec-2019 11:00 AM 0.00 0.00 NO
ICC ICC/00469/2019-20 09-Dec-2019 Enquiry No. : I-12296/MSB/LTE/PSD, PROCUREMENT OF TRUNION END SHAFT OF FEED HEAD 17-Dec-2019 11:00 AM 0.00 0.00 NO
ICC ICC/00470/2019-20 09-Dec-2019 Enquiry No. : I-12245/MSB/LTE/PSD, PROCUREMENT OF SPRING 17-Dec-2019 11:00 AM 0.00 0.00 NO
ICC ICC/00471/2019-20 09-Dec-2019 Enquiry No. : I-12246/MSB/LTE/PSD, PROCUREMENT OF PU TUBES AND FITTINGS 17-Dec-2019 11:00 AM 0.00 0.00 NO
ICC ICC/00472/2019-20 09-Dec-2019 Enquiry No. : I-12330/SRD/LTE/PSD, PROCUREMENT OF BEARING 17-Dec-2019 11:00 AM 0.00 0.00 NO
ICC ICC/00473/2019-20 09-Dec-2019 Enquiry No. : I-12241/MSB/LTE/PSD, PROCUREMENT OF BEARING 20-Dec-2019 11:00 AM 0.00 0.00 NO
ICC ICC/00474/2019-20 09-Dec-2019 Enquiry No. : I-12312/SRD/LTE/PSD, PROCUREMENT OF SPARES FOR ATLAS COPCO COMPRESSOR 13-Dec-2019 11:00 AM 0.00 0.00 NO
ICC ICC/00475/2019-20 09-Dec-2019 Enquiry No. : I-12314/LTE/MSB/PSD, Procurement of CHAIN PULLEY BLOCK 17-Dec-2019 11:00 AM 0.00 0.00 NO
ICC ICC/00476/2019-20 09-Dec-2019 Enquiry No. : I-12343/LTE/MSB/PSD, Procurement of SPARES COIL FOR LOCO MOTOR 17-Dec-2019 11:00 AM 0.00 0.00 NO
ICC ICC/00477/2019-20 09-Dec-2019 Procurement of Carbon Brush-NIT-I-12411/LTE/SRD/DIS 20-Dec-2019 11:00 AM 0.00 0.00 NO
ICC ICC/00477/2019-20 09-Dec-2019 Enquiry No: I-12374/WEB/CONT/BT(MAINTENANCE & OPERATION OF 33 KV OVERHEAD LINE, SUB STATION AND OTHER RELATED ELECTRICAL JOBS FOR YR: 2019-20) 31-Dec-2019 2:00 PM 0.00 30850.00 NO
ICC ICC/00479/2019-20 09-Dec-2019 Enquiry No. : I-12345/LTE/MSB/PSD, Procurement of CAP LAMP BULB 13-Dec-2019 11:00 AM 0.00 0.00 NO
MCP MCP/00231/2019-20 09-Dec-2019 M14633 PROCUREMENT FOR BALL MILL DISCHARGE PUMP 23-Dec-2019 3:00 PM 0.00 20225.00 NO
ICC ICC/00480/2019-20 09-Dec-2019 PROCUREMENT OF SUPER TRANSFORMER OIL FOR SURDA MINE, NIT-I-12429/NIC/SURDA/DIS 31-Dec-2019 11:00 AM 0.00 4120.00 NO
ICC ICC/00481/2019-20 09-Dec-2019 Enquiry No. : I-12332/LTE/MSB/PSD, Procurement of NUT AND BOLTS 17-Dec-2019 11:00 AM 0.00 0.00 NO
ICC ICC/00482/2019-20 09-Dec-2019 Enquiry No. : I-12365/STE/MSB/PSD, Procurement of LED CAP LAMP 13-Dec-2019 11:00 AM 0.00 0.00 NO
ICC ICC/00483/2019-20 09-Dec-2019 Enquiry No.: I-12403/LTE/CONT/BT(Limited Tender Enquiry for Rubber lining for floatation cell) 31-Dec-2019 2:00 PM 0.00 0.00 NO
ICC ICC/00484/2019-20 09-Dec-2019 Enquiry No. : I-12404/LTE/MSB/PSD. Procurement of EARTH LEAKAGE RELAY 20-Dec-2019 11:00 AM 0.00 0.00 NO
ICC ICC/00485/2019-20 09-Dec-2019 Enquiry No. : I-12200/LTE/MSB/PSD, Procurement of COUPLING BOLT 17-Dec-2019 11:00 AM 0.00 0.00 NO
ICC ICC/00486/2019-20 09-Dec-2019 Enquiry No. : I-12423/LTE/MSB/PSD, Procurement of METER GAUGE TONGUE SLEEPER FOR SURDA MINES 20-Dec-2019 11:00 AM 0.00 0.00 NO
ICC ICC/00487/2019-20 09-Dec-2019 Enquiry No: I-12431/WEB/CONT/BT(Engagement of Security Agency) 31-Dec-2019 2:00 PM 0.00 1332000.00 NO
MCP MCP/00226/2019-20 07-Dec-2019 M14785 3000 SEMI-SKILLED LABOUR TO SECURITY DEPARTMENT INSIDE MAIN GATE AREA 17-Dec-2019 3:00 PM 0.00 19000.00 NO
MCP MCP/00226/2019-20 07-Dec-2019 M14627 PROCUREMENT FOR DEVELOPMENT OF SPARES FOR UNDERFLOW PUMP MODEL 23-Dec-2019 3:00 PM 0.00 2500.00 NO
MCP MCP/00228/2019-20 07-Dec-2019 M14759 REQUIREMENT OF SPARES FOR 300 CFT CELL 16-Dec-2019 3:00 PM 0.00 0.00 NO
MCP MCP/00229/2019-20 07-Dec-2019 M14761 REQUIREMENT OF ALTERNATE SOURCE OF DEVELOPMENT OF KNIFE GATE VALVE 23-Dec-2019 3:00 PM 0.00 3200.00 NO
MCP MCP/00230/2019-20 07-Dec-2019 M14764 REQUIREMENT FOR Mn STEEL LINNER FOR SKIRT BOARD OF APRON FEEDER 23-Dec-2019 3:00 PM 0.00 4800.00 NO
KCC KCC/00378/2019-20 06-Dec-2019 RFQ-8458 STATIONERY ITEMS 26-Dec-2019 2:00 PM 0.00 0.00 NO
KCC KCC/00379/2019-20 06-Dec-2019 RFQ-8441 PISTON ROD FOR PNEUMATIC ROCK BREAKER 19-Dec-2019 2:00 PM 0.00 0.00 NO
KCC KCC/00380/2019-20 06-Dec-2019 RFQ-8457 STEEL BUSH 26-Dec-2019 2:00 PM 0.00 0.00 NO
MCP MCP/00225/2019-20 06-Dec-2019 M14782 Outsourcing of work of Attending Miscellaneous office jobs (Peon) 16-Dec-2019 3:00 PM 0.00 22000.00 NO
ICC ICC/00466/2019-20 06-Dec-2019 Enquiry No. I-12206/nic/MSB/PSD. PROCUREMENT OF LHD FOR SURDA 24-Dec-2019 11:00 AM 0.00 110000.00 NO
ICC ICC/00467/2019-20 06-Dec-2019 Enquiry No. I-12299/LTE/MSB/PSD. Procurement of PULL CORD SWITCHWES 13-Dec-2019 11:00 AM 0.00 0.00 NO
ICC ICC/00461/2019-20 05-Dec-2019 Procurement of Telescopic Stopper, NIT-I-12408/LTE/SRD/DIS 17-Dec-2019 11:00 AM 0.00 0.00 NO
ICC ICC/00461/2019-20 05-Dec-2019 I-12309/LTE/MSB/KK FOR INSULATION PAPER FOR ERS AT MOSABONI. 17-Dec-2019 11:00 AM 0.00 0.00 NO
KCC KCC/00377/2019-20 05-Dec-2019 RFQ-8435 WIRE ROPE SILING 16-Dec-2019 2:00 PM 0.00 1300.00 NO
ICC ICC/00463/2019-20 05-Dec-2019 I-12368/nic/MSB/PSD FOR 11 KV POWER CABLE. 27-Dec-2019 11:00 AM 0.00 4000.00 NO
ICC ICC/00464/2019-20 05-Dec-2019 Enquiry No: I-12287/WEB/CONT/BT(Comprehensive Annual maintenance contract Of Online Emission Monitoring systems at ICC Inside works (2019-20)) 24-Dec-2019 2:00 PM 0.00 21350.00 NO
ICC ICC/00465/2019-20 05-Dec-2019 Enquiry No: I-12373/WEB/CONT/BT(Annual Contract for cleaning of foot valves at Intake Well, Clarifier at WTP(Outside) & removal of vegetation at WTP(Outside)) 24-Dec-2019 2:00 PM 0.00 7330.00 NO
KCC KCC/00373/2019-20 04-Dec-2019 RFQ-8447 KOEPE WINDER ROPE ATTACHMENT -KCM 19-Dec-2019 2:00 PM 0.00 4800.00 NO
TCP TCP/00022/2019-20 04-Dec-2019 AMC FOR COIL CONVEYER AND DESTACKER SYSTEM 23-Dec-2019 3:00 PM 0.00 1600.00 NO No.
MCP MCP/00222/2019-20 04-Dec-2019 M14772 PROVIDING ASSISTANCE FOR SHIFT OPERATIONS IN MINES. 24-Dec-2019 3:00 PM 0.00 23400.00 NO
MCP MCP/00223/2019-20 04-Dec-2019 M14771 :- ANNUAL MECHANICAL MAINTENANCE OF EQUIPMENTS INSTALLED AT CONCENTRATOR PLANT, WTP, INTAKE WELL, TAILING DAM, FOR YEAR 2020-21 24-Dec-2019 3:00 PM 0.00 19500.00 NO
MCP MCP/00224/2019-20 04-Dec-2019 M14747 Job contract for Survey work at civil department at MCP (2019-20). 24-Dec-2019 3:00 PM 0.00 950.00 NO
ICC ICC/00455/2019-20 04-Dec-2019 Enquiry No: I-12366/WEB/CONT/BT (DUST HANDLING FROM AREA OF ESP, BOILER, DUCT LINE AND OVER SIZE AREA OF DRYER AND TRANSPORT TO CONVERTER AISLE AND CONCENTRATE STORE) 20-Dec-2019 2:00 PM 0.00 12830.00 NO
ICC ICC/00456/2019-20 04-Dec-2019 Procurement of Lab Glassware for Mosaboni, NIT-I-12412/LTE/MSB/DIS 17-Dec-2019 11:00 AM 0.00 0.00 NO
ICC ICC/00457/2019-20 04-Dec-2019 Procurement of Airleg spares, NIT-I-12410/LTE/SRD/DIS 17-Dec-2019 11:00 AM 0.00 0.00 NO
ICC ICC/00458/2019-20 04-Dec-2019 Procurement of GI Wire Mesh, NIT-I-12407/LTE/SRD/DIS 17-Dec-2019 11:00 AM 0.00 0.00 NO
ICC ICC/00459/2019-20 04-Dec-2019 Procurement of Engine Mounting Pad for BEML Loader BL - 200, NIT-I-12305/LTE/GRG/DIS 17-Dec-2019 11:00 AM 0.00 0.00 NO
ICC ICC/00460/2019-20 04-Dec-2019 Procurement of Belts for Backfilling Pumps at Surda Mine-LTE 17-Dec-2019 11:00 AM 0.00 0.00 NO
KCC KCC/00374/2019-20 03-Dec-2019 RFQ-8448 SPROCKET TEETH FOR BEML DOZER 23-Dec-2019 2:00 PM 0.00 2150.00 NO
KCC KCC/00375/2019-20 03-Dec-2019 RFQ-8449 RECON ENGINE FOR DOZER BD D355 19-Dec-2019 2:00 PM 0.00 14500.00 NO
KCC KCC/00376/2019-20 03-Dec-2019 RFQ-8450 RADIATOR ASSEMBLY FOR BEML DOZER 23-Dec-2019 2:00 PM 0.00 3700.00 NO
KCC KCC/00371/2019-20 02-Dec-2019 RFQ-8446 "Procurement of Immersion Heaters thru' CPPP" 23-Dec-2019 2:00 PM 0.00 0.00 NO
KCC KCC/00372/2019-20 02-Dec-2019 RFQ-8445 PROCUREMENT OF WINDOW 10 19-Dec-2019 2:00 PM 0.00 1300.00 NO
ICC ICC/00453/2019-20 02-Dec-2019 I-12392/LTE/SURDA/KK for CONTROL TRANSFORMER. 17-Dec-2019 11:00 AM 0.00 0.00 NO
ICC ICC/00454/2019-20 02-Dec-2019 I-12422/NIC/BH/KK for TUBE PANELS 6a, 6b AND 7 OF WASTE HEAT BOILER. 13-Dec-2019 11:00 AM 0.00 7300.00 NO
ICC ICC/00447/2019-20 30-Nov-2019 Procurement of Amol S.S. Welding Electrode, I-12357/LTE/CPM/DIS 20-Dec-2019 11:00 AM 0.00 0.00 NO
ICC ICC/00448/2019-20 30-Nov-2019 Procurement of BATA MOCASSINO SHOES, NIT-I-12342/LTE/GRG/DIS 20-Dec-2019 11:00 AM 0.00 0.00 NO
ICC ICC/00449/2019-20 30-Nov-2019 PROCUREMENT OF SPARES FOR ALTAS COPCO SCREW COMPRESSOR AT SURDA MINE, NIT-I-12355/NIC/SURDA/DIS 20-Dec-2019 11:00 AM 0.00 9652.00 NO
ICC ICC/00450/2019-20 30-Nov-2019 PROCUREMENT OF RUNNING SPARES FOR EIMCO ELECON 811 LHD AT SURDA MINE, NIT-I-12359/NIC/SURDA/DIS 20-Dec-2019 11:00 AM 0.00 17580.00 NO
ICC ICC/00451/2019-20 30-Nov-2019 PROCUREMENT OF SPARES FOR ALTAS COPCO SCREW COMPRESSOR AT SURDA MINE, NIT-I-12355/NIC/SURDA/DIS 20-Dec-2019 11:00 AM 0.00 9652.00 NO
MCP MCP/00220/2019-20 30-Nov-2019 M14770 REPAIR/ MAINTENANCE OF AUTO ELECTRICAL WORKS 19-Dec-2019 3:00 PM 0.00 11800.00 NO
KCC KCC/00369/2019-20 29-Nov-2019 Job Contract for Sampling of KCC Concentrate Export 20-Dec-2019 2:30 PM 0.00 6000.00 NO 0
ICC ICC/00440/2019-20 29-Nov-2019 Coiled Spring for 400 NB NRV of cooling water supply line, NIT-I-12279/FSM/LTE/DIS 17-Dec-2019 11:00 AM 0.00 0.00 NO
ICC ICC/00441/2019-20 29-Nov-2019 PROCUREMENT OF JACKHAMMER SPARES FOR SURDA MINE, I-12360/NIC/SURDA/DIS 20-Dec-2019 11:00 AM 0.00 0.00 NO
ICC ICC/00442/2019-20 29-Nov-2019 NIT-I-12349/NIC/R&D/DIS, PROCUREMENT OF TEMPERATURE PROBE / SENSOR, FLOW /VELOCITY METER, PRESSURE MONITOR AND O2 ANALYZERS FOR NORMALIZATION OF EXISTING CEM SYSTEM 20-Dec-2019 11:00 AM 0.00 0.00 NO
ICC ICC/00443/2019-20 29-Nov-2019 Spares for Pulveriser Machine-NIT-I-12353/LTE/MSB/DIS 20-Dec-2019 11:00 AM 0.00 0.00 NO
ICC ICC/00444/2019-20 29-Nov-2019 Enquiry No : I-12350/WEB/CONT/BT(Annual Maintenance Contract for Water Treatment Plant) 20-Dec-2019 2:00 PM 0.00 10230.00 NO
ICC ICC/00445/2019-20 29-Nov-2019 Procurement of Bearing Grease, Soldering Flux and Metallic Putty, NIT-I-12363/LTE/MSB/DIS 20-Dec-2019 11:00 AM 0.00 0.00 NO
KCC KCC/00370/2019-20 29-Nov-2019 ARC FOR RUBBER LINING, BELT VULCANIZING, PULLEY LAGGING & TUBE PATCHING IN CONCENTRATOR PLANT & MINES 12-Dec-2019 2:30 PM 0.00 24000.00 NO
ICC ICC/00439/2019-20 28-Nov-2019 Enquiry No: I-12289/WEB/CONT/BT (Repair of Acid Proof Tiles Lining job inside works 2019-20) 17-Dec-2019 2:00 PM 0.00 22430.00 NO
KCC KCC/00368/2019-20 28-Nov-2019 RFQ-8439 TYRE,TUBE,FLAP FOR LHD RUNNING AT KCM 16-Dec-2019 2:00 PM 0.00 3000.00 NO
KCC KCC/00367/2019-20 27-Nov-2019 RFQ-8442 Procurement of Envelops of Assorted sizes 19-Dec-2019 2:00 PM 0.00 0.00 NO
ICC ICC/00436/2019-20 27-Nov-2019 Enquiry No: I-12280/WEB/CONT/BT(AMC OF EOT CRANES AND EQUIPMENTS UNDER MACHINE SHOP) 17-Dec-2019 2:00 PM 0.00 11730.00 NO
MCP MCP/00219/2019-20 27-Nov-2019 Underground Mine Communication system at Malanjkhand Copper Project (MCP) 03-Jan-2020 3:00 PM 0.00 0.00 NO
ICC ICC/00437/2019-20 27-Nov-2019 PROCUREMENT OF VVFD FOR RECOVERY DUST REDDLER, LONG BELT OF SCF AND CONCENTRATE BELT OF FLASH SMELTER 20-Dec-2019 11:00 AM 0.00 5700.00 NO
ICC ICC/00438/2019-20 27-Nov-2019 PROCUREMENT OF SPARE DRIVE MODULE FOR DRIVE PANEL. 20-Dec-2019 11:00 AM 0.00 3700.00 NO
ICC ICC/00427/2019-20 25-Nov-2019 Procurement of TUFNOL BUSH, NIT-I-12333/LTE/MSB/DIS 20-Dec-2019 11:00 AM 0.00 0.00 NO
MCP MCP/00217/2019-20 25-Nov-2019 M14760 Out sourcing of General Shift/ Shift Operation of Concentrator Plant (Part: 1 for 3600 mandays for one year) (Manpower requirement from January 2019 against superannuation / separated non executive.) 13-Dec-2019 3:00 PM 0.00 23000.00 NO
ICC ICC/00428/2019-20 25-Nov-2019 NIT-I-12367/nic/MSB/PSD, PROCUREMENT OF 2200 MM DIA SHEAVE WHEEL 17-Dec-2019 11:00 AM 0.00 9366.00 NO
ICC ICC/00429/2019-20 25-Nov-2019 Procurement of ROTOR SHAFT OF FLOATATION CELL, NIT-I-12326/LTE/MSB/PSD 17-Dec-2019 11:00 AM 0.00 0.00 NO
ICC ICC/00430/2019-20 25-Nov-2019 Procurement of CONVEYOR BELT, NIT-I-12322/LTE/MSB/PSD 17-Dec-2019 11:00 AM 0.00 0.00 NO
ICC ICC/00431/2019-20 25-Nov-2019 Procurement of Fasteners for Ball Mill for MSB Concentrator Plant, NIT-I-12308/LTE/MSB/PSD 17-Dec-2019 11:00 AM 0.00 0.00 NO
MCP MCP/00218/2019-20 25-Nov-2019 M14762 ASSISTANCE FOR CARRYING OUT REPAIR AND MAINTENANCE ACTIVITIES IN DIFFERENT SECTIONS OF CONC. PLANT MPU-GENERTAL & CYCLIC SHIFTS 13-Dec-2019 3:00 PM 0.00 20000.00 NO
ICC ICC/00432/2019-20 25-Nov-2019 Procurement of HT FUSE FOR APFC PANEL, NIT-I-12300/LTE/MSB/PSD 17-Dec-2019 11:00 AM 0.00 0.00 NO
KCC KCC/00366/2019-20 23-Nov-2019 Miscellaneous Civil jobs in Plant area at KCC 14-Dec-2019 2:30 PM 0.00 11000.00 NO 0
ICC ICC/00423/2019-20 23-Nov-2019 Procurement of Spares for Oldham GT Cap Lamp, NIT-I-12358/LTE/SRD/DIS 17-Dec-2019 11:00 AM 0.00 0.00 NO
ICC ICC/00425/2019-20 23-Nov-2019 Procurement of Spares for Disc Feeder Gear Box of Ball Mill No. 2 and 3, NIT-I-12356/LTE/MSB/DIS 17-Dec-2019 11:00 AM 0.00 0.00 NO
ICC ICC/00426/2019-20 23-Nov-2019 Enquiry No: I-11147B/WEB/CONT/BT(ERECTION OF NEW REFRACTORY LINING IN CONVERTORS, MONOMETERS AND OTHER JOBS AT CAST HOUSE) 13-Dec-2019 2:00 PM 0.00 19790.00 NO
ICC ICC/00421/2019-20 22-Nov-2019 I-12255/NIC/ELECT/KK for DRIVE FOR CAST WHEEL APPLICATION. 13-Dec-2019 11:00 AM 0.00 5700.00 NO
ICC ICC/00422/2019-20 22-Nov-2019 I-12268/NIC/ELECT/KK HIGH MAST FOR INSIDE PLANT & TOWNSHIP. 13-Dec-2019 11:00 AM 0.00 17500.00 NO
ICC ICC/00416/2019-20 22-Nov-2019 Enquiry No. I-12165/nic/MSB/PSD. PROCUREMENT OF PIT BOTTOM BUFFER FOR SURDA MINES 13-Dec-2019 11:00 AM 0.00 24500.00 NO
ICC ICC/00417/2019-20 22-Nov-2019 Enquiry No. : I-12150/nic/MSB/PSD. PROCUREMENT OF LIGHTING DISTRIBUTION PANEL and TIMER 17-Dec-2019 11:00 AM 0.00 2877.00 NO
KCC KCC/00365/2019-20 22-Nov-2019 RFQ-8433 Procurement of Apparatus & Equipments 12-Dec-2019 2:00 PM 0.00 0.00 NO
ICC ICC/00419/2019-20 22-Nov-2019 Enquiry No I-12251/WEB/CONT/BT (Running repair maintenance to Heat Insulation jobs inside the works 2019) 13-Dec-2019 2:00 PM 0.00 17620.00 NO
ICC ICC/00415/2019-20 21-Nov-2019 I-12351/NIC/Surda/KK for MINE CAR BEARING FOR SURDA MINES. 13-Dec-2019 11:00 AM 0.00 7450.00 NO
KCC KCC/00364/2019-20 20-Nov-2019 RFQ-8426 Procurement of Welding Electrodes 19-Dec-2019 2:00 PM 0.00 0.00 NO
MCP MCP/00211/2019-20 20-Nov-2019 M14649 REQUIREMENT OF DIGITAL X-RAY MACHINE 11-Dec-2019 3:00 PM 0.00 7900.00 NO
MCP MCP/00212/2019-20 20-Nov-2019 M14746 COMPLETE REWINDING OF STATOR OF 3.3 KV , 132 KW, STROMBERG MAKE SALA PUMP MOTOR (LTE) 13-Dec-2019 3:00 PM 0.00 0.00 NO
ICC ICC/00401/2019-20 19-Nov-2019 PROCUREMENT OF PISTON LINER DRY DISC BRAKE, NIT-I-11877/CPM/LTE/DIS 20-Dec-2019 11:00 AM 0.00 0.00 NO
ICC ICC/00403/2019-20 19-Nov-2019 Enquiry No. I-12291/nic/MSB/PSD. PROCUREMENT OF VCB PANEL, 3.3 KV 13-Dec-2019 11:00 AM 0.00 0.00 NO
ICC ICC/00404/2019-20 19-Nov-2019 Enquiry No. I-11952/nic/MSB/PSD. PROCUREMENT OF WINDING ROPES FOR SURDA MINES 20-Dec-2019 11:00 AM 0.00 0.00 NO
ICC ICC/00408/2019-20 19-Nov-2019 Enquiry No : I-12231/WEB/CONT/BT (Rubber Lining Job for DM Plant and CPM ) 13-Dec-2019 2:00 PM 0.00 4500.00 NO
ICC ICC/00409/2019-20 19-Nov-2019 Enquiry No : I-12214/WEB/CONT/BT (Facelifting work from inside central stores) 13-Dec-2019 2:00 PM 0.00 9070.00 NO
ICC ICC/00411/2019-20 19-Nov-2019 Enquiry No. I-12094/nic/MSB/PSD. PROCUREMENT of Belt Weightometer for Mosaboni Mines 13-Dec-2019 11:00 AM 0.00 20500.00 NO
KCC KCC/00361/2019-20 19-Nov-2019 Misc. Civil works at G.T. Plant & Power house 12-Dec-2019 2:30 PM 0.00 14300.00 NO
KCC KCC/00362/2019-20 19-Nov-2019 Making of Pedestrian path along the Boundary wall and Sitting Benches in Nehru Maidan at KCC 12-Dec-2019 2:30 PM 0.00 19700.00 NO
KCC KCC/00358/2019-20 18-Nov-2019 RFQ-8424 PROCUREMENT OF STATIONARY FOR TOWN BILLING PRINTING 19-Dec-2019 2:00 PM 0.00 0.00 NO
KCC KCC/00360/2019-20 18-Nov-2019 ANNUAL CONTRACT FOR STRUCTURAL REPAIR & SHIFT MAINTENANCE OF AERIAL ROPE WAY 13-Dec-2019 2:30 PM 0.00 22200.00 NO
ICC ICC/00398/2019-20 18-Nov-2019 NIT-I-12335/NIC/MSB/DIS, PROCUREMENT OF SPARES FOR RIVER SIDE INTAKE WATER PUMP 13-Dec-2019 11:00 AM 0.00 10200.00 NO
ICC ICC/00399/2019-20 18-Nov-2019 PROCUREMENT OF M S PLATE, NIT-I-12201/NIC/MSB/DIS 13-Dec-2019 11:00 AM 0.00 9439.00 NO
ICC ICC/00400/2019-20 18-Nov-2019 PROCUREMENT OF BARREL PUMP, I-12282/ELECT./LTE/DIS 13-Dec-2019 11:00 AM 0.00 0.00 NO
MCP MCP/00205/2019-20 15-Nov-2019 M14725 ARC (2019-20) for up keep & cleaning of toe drain around tailing dam at Malanjkhand Copper Project 16-Dec-2019 3:00 PM 0.00 4200.00 NO
MCP MCP/00206/2019-20 15-Nov-2019 14734 "ARC for cleaning of drains / washing ramps / mud settler tanks / oil skimmer tanks / excavations require for maintenance of the underground water lines and cleaning of bushes for the plant area”- {ARC 2019 –20} 16-Dec-2019 3:00 PM 0.00 7100.00 NO
MCP MCP/00208/2019-20 15-Nov-2019 M14724 Annual rate contract for misc. civil repair & maint. works in plant & mines area, ARC (2019-20) 16-Dec-2019 3:00 PM 0.00 15700.00 NO
ICC ICC/00392/2019-20 13-Nov-2019 Enquiry No I-12264/WEB/CONT/BT (COMPLETE REPARING OF 5 MVA SLAG CLEANING TRANFORMER) 20-Dec-2019 2:00 PM 0.00 53600.00 NO
KCC KCC/00352/2019-20 12-Nov-2019 RFQ-8417 NYLON FILTER BAGS 16-Dec-2019 2:00 PM 0.00 0.00 NO
KCC KCC/00353/2019-20 12-Nov-2019 RFQ-8418 CARRIER & LINING ASSEMBLY FOR JDT & LHD 16-Dec-2019 2:00 PM 0.00 0.00 NO
KCC KCC/00354/2019-20 12-Nov-2019 RFQ-8419 HYDRAULIC PUMP FOR JDT AND LHD RUNNING AT KCM 16-Dec-2019 2:00 PM 0.00 1300.00 NO
ICC ICC/00385/2019-20 09-Nov-2019 Enquiry No. : I-12283/nic/PSD. Design, Engineering, Supply, Erection, Testing and Commissioning of Polymer Concrete Cells (117Numbers) with all process PVC FRP piping system for electrolytic copper refining as per Size of ICC Anode (ANNEXURE-VIII) on turnkey basis 17-Dec-2019 11:00 AM 0.00 474500.00 NO
ICC ICC/00386/2019-20 09-Nov-2019 Enquiry No. : I-11909/nic/MSB/PSD.PROCUREMENT OF POWER DISTRIBUTION TRANSFORMER 13-Dec-2019 11:00 AM 0.00 2400.00 NO
ICC ICC/00387/2019-20 09-Nov-2019 Enquiry No. : I-11989/nic/MSB/PSDPROCUREMENT OF 33KV VCB FOR 10 MVA TRANSFORMER 13-Dec-2019 11:00 AM 0.00 14675.00 NO
ICC ICC/00375/2019-20 05-Nov-2019 Enquiry No. I-12204/nic/MSB/PSD. PROCUREMENT OF RUBBER LINERS FOR BALL MILL 13-Dec-2019 11:00 AM 0.00 25500.00 NO
KCC KCC/00340/2019-20 02-Nov-2019 RFQ-8405 PROCUREMENT OF SOLENOID VALVES 12-Dec-2019 2:00 PM 0.00 200.00 NO
ICC ICC/00360/2019-20 01-Nov-2019 Enquiry No. : I-11587/WEB/CONT/BT (ANNUAL REFRACTORY MAINTENANCE JOBS AT CAST HOUSE,CONVERTERS,FF,SCF,DUCTLINE AND OTHER AREAS) 20-Dec-2019 2:00 PM 0.00 27590.00 NO
ICC ICC/00357/2019-20 31-Oct-2019 PROCUREMENT OF SILICA SAND, NIT-I-12273/FS/LTE/DIS 04-Jan-2020 11:00 AM 0.00 0.00 NO
ICC ICC/00351/2019-20 30-Oct-2019 Enquiry No. I-12190/MSB/LTE/PSD. PROCUREMENT OF GEAR BOX 17-Dec-2019 11:00 AM 0.00 0.00 NO
ICC ICC/00346/2019-20 29-Oct-2019 PROCUREMENT OF COMMON SALT FOR SOFTENING PLANT, NIT-I-12210/NIC/WTP/DIS 25-Dec-2019 11:00 AM 0.00 9800.00 NO
ICC ICC/00340/2019-20 28-Oct-2019 Enquiry No. I-12001/nic/RCP/PSD. PROCUREMENT OF ICOG PANEL FOR RAKHA MINES 20-Dec-2019 11:00 AM 0.00 2910.00 NO
MCP MCP/00185/2019-20 24-Oct-2019 M14678 REQUIREMENT OF SPECTROPHOTOMETER. 11-Dec-2019 3:00 PM 0.00 1800.00 NO
ICC ICC/00327/2019-20 24-Oct-2019 PROCUREMENT OF BRAKE LINING, NIT-I-12254/ELECT/LTE/DIS 13-Dec-2019 11:00 PM 0.00 0.00 NO
ICC ICC/00323/2019-20 23-Oct-2019 PROCUREMENT OF SS 316 PUMP CASING CLAMP, NIT-I-12223/CPM/LTE/DIS 24-Dec-2019 11:00 AM 0.00 0.00 NO
ICC ICC/00311/2019-20 22-Oct-2019 NIT-I-12208-NIC-SAFETY-DIS, PROCUREMENT OF PVC - RUBBER ANKLE BOOT 27-Dec-2019 11:00 AM 0.00 5100.00 NO
ICC ICC/00304/2019-20 18-Oct-2019 NIT-I-12235-SFT-LTE-DIS, Procurement of Safety Shoes 20-Dec-2019 11:00 AM 0.00 0.00 NO
ICC ICC/00300/2019-20 17-Oct-2019 NIT-I-12131/CPM/LTE/DIS, Valves 13-Dec-2019 11:00 AM 0.00 0.00 NO
MCP MCP/00164/2019-20 12-Oct-2019 M14634 FACE-LIFTING AND REPAIR WORK OF DIESEL PUMP HOUSE, DG PUMP HOUSE, CEMENT GODOWN, LUBRICANT GODOWN, ETC. AT MCP. 16-Dec-2019 3:00 PM 0.00 2800.00 NO
Corporate Office CO/00022/2019-20 04-Oct-2019 NIT for Hiring of Diesel Equipment (Supply, Operation and Maintenance) at Kolihan Copper Mine, Khetri Copper Complex, Jhunjhunu, Rajasthan 30-Dec-2019 3:00 PM 5600.00 5000000.00 NO
ICC ICC/00261/2019-20 03-Oct-2019 PROCUREMENT OF CAST IRON PIPES & FITTINGS FOR WTP 13-Dec-2019 11:00 AM 0.00 6500.00 NO
Corporate Office CO/00018/2019-20 13-Sep-2019 DEVELOPMENT OF UNDERGROUND MINE AND PRODUCTION OF ORE FROM STOPES, AT CHAPRI, INDIAN COPPER COMPLEX 12-Dec-2019 3:00 PM 5600.00 5000000.00 NO
ICC ICC/00128/2019-20 12-Aug-2019 Enquiry No. I-11555/nic/MSB/PSD.POWER CONTRACTORS and RELAYS – L AND T 13-Dec-2019 11:00 AM 0.00 2885.00 NO